createdAt,value
2023-03-12T00:03:08.466Z,1003.351
2023-03-12T00:23:07.330Z,1003.299
2023-03-12T00:43:08.099Z,1003.178
2023-03-12T01:03:08.819Z,1003.113
2023-03-12T01:23:07.755Z,1002.827
2023-03-12T01:43:07.627Z,1002.677
2023-03-12T02:03:08.375Z,1002.573
2023-03-12T02:23:07.481Z,1002.455
2023-03-12T02:43:07.366Z,1002.359
2023-03-12T03:03:08.084Z,1002.269
2023-03-12T03:23:07.864Z,1002.178
2023-03-12T03:43:07.700Z,1001.948
2023-03-12T04:03:08.604Z,1002.01
2023-03-12T04:23:07.405Z,1001.661
2023-03-12T04:43:07.223Z,1001.625
2023-03-12T05:03:09.148Z,1001.366
2023-03-12T05:23:07.947Z,1001.193
2023-03-12T05:43:08.024Z,1000.953
2023-03-12T06:03:08.158Z,1000.655
2023-03-12T06:23:07.880Z,1000.586
2023-03-12T06:43:07.729Z,1000.266
2023-03-12T07:03:08.673Z,1000.095
2023-03-12T07:23:07.561Z,1000.09
2023-03-12T07:43:07.786Z,1000.154
2023-03-12T08:03:09.776Z,999.78
2023-03-12T08:23:07.840Z,999.678
2023-03-12T08:43:07.801Z,999.39
2023-03-12T09:03:08.847Z,999.618
2023-03-12T09:23:08.975Z,999.567
2023-03-12T09:43:07.871Z,999.553
2023-03-12T10:03:08.946Z,999.281
2023-03-12T10:23:07.788Z,998.992
2023-03-12T10:43:07.834Z,998.985
2023-03-12T11:03:08.784Z,998.963
2023-03-12T11:23:07.677Z,998.828
2023-03-12T11:43:07.713Z,998.788
2023-03-12T12:03:08.813Z,998.584
2023-03-12T12:23:07.729Z,998.377
2023-03-12T12:43:07.782Z,998.206
2023-03-12T13:03:08.829Z,998.03
2023-03-12T13:23:07.702Z,997.924
2023-03-12T13:43:07.743Z,997.921
2023-03-12T14:03:08.700Z,997.533
2023-03-12T14:23:07.619Z,997.702
2023-03-12T14:43:07.546Z,997.852
2023-03-12T15:03:08.443Z,997.901
2023-03-12T15:23:07.312Z,997.698
2023-03-12T15:43:07.273Z,997.693
2023-03-12T16:03:09.305Z,997.606
2023-03-12T16:23:08.068Z,997.42
2023-03-12T16:43:08.021Z,997.273
2023-03-12T17:03:09.072Z,997.57
2023-03-12T17:23:07.959Z,997.726
2023-03-12T17:43:07.963Z,997.899
2023-03-12T18:03:09.062Z,997.997
2023-03-12T18:23:07.962Z,998.155
2023-03-12T18:43:08.051Z,998.335
2023-03-12T19:03:09.114Z,998.422
2023-03-12T19:23:08.053Z,998.216
2023-03-12T19:43:07.999Z,997.987
2023-03-12T20:03:09.176Z,998.094
2023-03-12T20:23:08.162Z,998.044
2023-03-12T20:43:07.218Z,997.982
2023-03-12T21:03:09.167Z,997.752
2023-03-12T21:23:08.199Z,997.821
2023-03-12T21:43:07.105Z,997.413
2023-03-12T22:03:09.052Z,997.213
2023-03-12T22:23:07.864Z,996.883
2023-03-12T22:43:07.945Z,996.693
2023-03-12T23:03:08.272Z,996.401
2023-03-12T23:23:08.047Z,996.199
2023-03-12T23:43:07.774Z,995.917
